sensor_id;sensor_type;location;lat;lon;timestamp;pressure;altitude;pressure_sealevel;temperature;humidity
33913;BME280;20200;52.084;5.224;2022-12-22T07:27:16;151967.0;;;12.71;76.49
33913;BME280;20200;52.084;5.224;2022-12-22T07:28:52;152070.0;;;13.11;75.06
33913;BME280;20200;52.084;5.224;2022-12-22T07:30:28;151959.0;;;12.67;76.08
33913;BME280;20200;52.084;5.224;2022-12-22T07:33:41;151904.0;;;12.45;77.19
33913;BME280;20200;52.084;5.224;2022-12-22T07:35:17;151906.0;;;12.46;77.25
33913;BME280;20200;52.084;5.224;2022-12-22T07:36:53;151865.0;;;12.3;77.66
33913;BME280;20200;52.084;5.224;2022-12-22T07:40:09;151940.0;;;12.6;76.86
33913;BME280;20200;52.084;5.224;2022-12-22T07:41:45;151965.0;;;12.7;76.86
33913;BME280;20200;52.084;5.224;2022-12-22T07:43:21;152137.0;;;13.38;74.02
33913;BME280;20200;52.084;5.224;2022-12-22T07:44:57;152187.0;;;13.58;72.73
33913;BME280;20200;52.084;5.224;2022-12-22T07:48:12;152035.0;;;12.97;74.64
33913;BME280;20200;52.084;5.224;2022-12-22T07:49:49;151929.0;;;12.55;75.98
33913;BME280;20200;52.084;5.224;2022-12-22T07:51:25;151903.0;;;12.45;75.91
33913;BME280;20200;52.084;5.224;2022-12-22T07:54:40;151883.0;;;12.37;76.88
33913;BME280;20200;52.084;5.224;2022-12-22T07:56:16;151751.0;;;11.85;78.75
33913;BME280;20200;52.084;5.224;2022-12-22T07:57:53;151724.0;;;11.74;79.14
33913;BME280;20200;52.084;5.224;2022-12-22T08:01:08;151781.0;;;11.96;78.52
33913;BME280;20200;52.084;5.224;2022-12-22T08:02:47;151818.0;;;12.11;78.0
33913;BME280;20200;52.084;5.224;2022-12-22T08:04:24;151784.0;;;11.98;77.47
33913;BME280;20200;52.084;5.224;2022-12-22T08:06:03;151779.0;;;11.95;78.36
33913;BME280;20200;52.084;5.224;2022-12-22T08:09:16;151778.0;;;11.95;77.67
33913;BME280;20200;52.084;5.224;2022-12-22T08:10:52;151804.0;;;12.06;77.87
33913;BME280;20200;52.084;5.224;2022-12-22T08:12:29;151913.0;;;12.49;76.37
33913;BME280;20200;52.084;5.224;2022-12-22T08:15:41;151999.0;;;12.83;74.8
33913;BME280;20200;52.084;5.224;2022-12-22T08:17:17;151928.0;;;12.55;76.08
33913;BME280;20200;52.084;5.224;2022-12-22T08:18:53;151897.0;;;12.43;75.56
33913;BME280;20200;52.084;5.224;2022-12-22T08:20:29;151938.0;;;12.59;75.37
33913;BME280;20200;52.084;5.224;2022-12-22T08:23:42;152034.0;;;12.97;74.16
33913;BME280;20200;52.084;5.224;2022-12-22T08:25:19;152011.0;;;12.88;73.81
33913;BME280;20200;52.084;5.224;2022-12-22T08:26:57;151980.0;;;12.76;73.86
33913;BME280;20200;52.084;5.224;2022-12-22T08:30:18;151923.0;;;12.53;74.47
33913;BME280;20200;52.084;5.224;2022-12-22T08:31:55;151999.0;;;12.83;73.94
33913;BME280;20200;52.084;5.224;2022-12-22T08:33:30;152104.0;;;13.25;72.69
33913;BME280;20200;52.084;5.224;2022-12-22T08:35:08;152124.0;;;13.33;72.19
33913;BME280;20200;52.084;5.224;2022-12-22T08:38:25;151999.0;;;12.83;73.69
33913;BME280;20200;52.084;5.224;2022-12-22T08:40:04;151934.0;;;12.57;74.66
33913;BME280;20200;52.084;5.224;2022-12-22T08:41:41;152018.0;;;12.91;73.72
33913;BME280;20200;52.084;5.224;2022-12-22T08:44:54;151932.0;;;12.57;74.74
33913;BME280;20200;52.084;5.224;2022-12-22T08:46:31;151989.0;;;12.79;74.33
33913;BME280;20200;52.084;5.224;2022-12-22T08:48:08;152035.0;;;12.98;73.16
33913;BME280;20200;52.084;5.224;2022-12-22T08:51:20;152014.0;;;12.89;73.55
33913;BME280;20200;52.084;5.224;2022-12-22T08:53:01;152028.0;;;12.95;73.33
33913;BME280;20200;52.084;5.224;2022-12-22T08:54:37;152019.0;;;12.91;73.64
33913;BME280;20200;52.084;5.224;2022-12-22T08:56:13;151999.0;;;12.83;74.03
33913;BME280;20200;52.084;5.224;2022-12-22T08:59:26;152019.0;;;12.91;73.45
33913;BME280;20200;52.084;5.224;2022-12-22T09:01:02;151976.0;;;12.74;73.77
33913;BME280;20200;52.084;5.224;2022-12-22T09:02:38;151988.0;;;12.79;73.97
33913;BME280;20200;52.084;5.224;2022-12-22T09:05:59;151980.0;;;12.76;74.11
33913;BME280;20200;52.084;5.224;2022-12-22T09:07:35;151946.0;;;12.62;74.74
33913;BME280;20200;52.084;5.224;2022-12-22T09:09:13;151977.0;;;12.75;73.97
33913;BME280;20200;52.084;5.224;2022-12-22T09:10:50;151999.0;;;12.83;73.81
33913;BME280;20200;52.084;5.224;2022-12-22T09:14:03;151991.0;;;12.8;73.61
33913;BME280;20200;52.084;5.224;2022-12-22T09:15:39;151982.0;;;12.76;73.58
33913;BME280;20200;52.084;5.224;2022-12-22T09:17:15;151959.0;;;12.67;74.03
33913;BME280;20200;52.084;5.224;2022-12-22T09:20:30;151922.0;;;12.52;74.23
33913;BME280;20200;52.084;5.224;2022-12-22T09:22:06;151941.0;;;12.6;74.11
33913;BME280;20200;52.084;5.224;2022-12-22T09:23:43;151962.0;;;12.69;73.69
33913;BME280;20200;52.084;5.224;2022-12-22T09:25:20;151898.0;;;12.43;74.44
33913;BME280;20200;52.084;5.224;2022-12-22T09:28:32;151984.0;;;12.77;73.61
33913;BME280;20200;52.084;5.224;2022-12-22T09:30:10;151942.0;;;12.61;74.28
33913;BME280;20200;52.084;5.224;2022-12-22T09:31:46;151961.0;;;12.68;73.38
33913;BME280;20200;52.084;5.224;2022-12-22T09:34:58;151918.0;;;12.51;73.48
33913;BME280;20200;52.084;5.224;2022-12-22T09:36:34;151976.0;;;12.74;72.8
33913;BME280;20200;52.084;5.224;2022-12-22T09:38:10;151939.0;;;12.6;73.12
33913;BME280;20200;52.084;5.224;2022-12-22T09:41:27;151983.0;;;12.77;72.83
33913;BME280;20200;52.084;5.224;2022-12-22T09:43:07;152002.0;;;12.84;72.75
33913;BME280;20200;52.084;5.224;2022-12-22T09:44:49;151966.0;;;12.7;73.33
33913;BME280;20200;52.084;5.224;2022-12-22T09:46:29;151929.0;;;12.55;73.89
33913;BME280;20200;52.084;5.224;2022-12-22T09:49:47;151967.0;;;12.7;73.58
33913;BME280;20200;52.084;5.224;2022-12-22T09:51:24;151903.0;;;12.45;74.42
33913;BME280;20200;52.084;5.224;2022-12-22T09:53:02;151913.0;;;12.49;74.39
33913;BME280;20200;52.084;5.224;2022-12-22T09:54:41;151950.0;;;12.64;73.72
33913;BME280;20200;52.084;5.224;2022-12-22T09:58:01;151966.0;;;12.7;73.2
33913;BME280;20200;52.084;5.224;2022-12-22T09:59:37;152033.0;;;12.97;72.61
33913;BME280;20200;52.084;5.224;2022-12-22T10:01:27;152005.0;;;12.86;73.24
33913;BME280;20200;52.084;5.224;2022-12-22T10:03:15;152004.0;;;12.85;73.05
33913;BME280;20200;52.084;5.224;2022-12-22T10:06:59;152063.0;;;13.09;72.94
33913;BME280;20200;52.084;5.224;2022-12-22T10:08:39;151985.0;;;12.78;73.72
33913;BME280;20200;52.084;5.224;2022-12-22T10:10:19;152022.0;;;12.92;73.28
33913;BME280;20200;52.084;5.224;2022-12-22T10:11:59;152036.0;;;12.98;73.34
33913;BME280;20200;52.084;5.224;2022-12-22T10:13:38;152019.0;;;12.91;73.5
33913;BME280;20200;52.084;5.224;2022-12-22T10:17:13;152036.0;;;12.98;73.36
33913;BME280;20200;52.084;5.224;2022-12-22T10:19:05;151960.0;;;12.68;74.13
33913;BME280;20200;52.084;5.224;2022-12-22T10:20:45;151996.0;;;12.82;73.91
33913;BME280;20200;52.084;5.224;2022-12-22T10:22:46;151988.0;;;12.79;73.81
33913;BME280;20200;52.084;5.224;2022-12-22T10:24:26;151911.0;;;12.48;75.12
33913;BME280;20200;52.084;5.224;2022-12-22T10:26:07;151970.0;;;12.72;74.72
33913;BME280;20200;52.084;5.224;2022-12-22T10:29:21;151981.0;;;12.76;74.87
33913;BME280;20200;52.084;5.224;2022-12-22T10:31:11;151932.0;;;12.57;75.58
33913;BME280;20200;52.084;5.224;2022-12-22T10:33:01;151927.0;;;12.55;76.11
33913;BME280;20200;52.084;5.224;2022-12-22T10:34:58;151952.0;;;12.65;75.75
33913;BME280;20200;52.084;5.224;2022-12-22T10:36:38;151946.0;;;12.62;76.25
33913;BME280;20200;52.084;5.224;2022-12-22T10:40:12;151915.0;;;12.5;76.16
33913;BME280;20200;52.084;5.224;2022-12-22T10:41:50;151916.0;;;12.5;76.52
33913;BME280;20200;52.084;5.224;2022-12-22T10:43:30;151931.0;;;12.56;76.66
33913;BME280;20200;52.084;5.224;2022-12-22T10:45:15;151985.0;;;12.78;76.23
33913;BME280;20200;52.084;5.224;2022-12-22T10:48:32;151968.0;;;12.71;76.41
33913;BME280;20200;52.084;5.224;2022-12-22T10:50:11;151952.0;;;12.65;77.25
33913;BME280;20200;52.084;5.224;2022-12-22T10:51:50;151981.0;;;12.76;77.14
33913;BME280;20200;52.084;5.224;2022-12-22T10:53:38;151955.0;;;12.66;77.3
33913;BME280;20200;52.084;5.224;2022-12-22T10:55:24;152051.0;;;13.04;76.77
33913;BME280;20200;52.084;5.224;2022-12-22T10:59:09;152068.0;;;13.11;76.45
33913;BME280;20200;52.084;5.224;2022-12-22T11:01:00;152060.0;;;13.07;76.5
33913;BME280;20200;52.084;5.224;2022-12-22T11:02:37;152067.0;;;13.1;76.36
33913;BME280;20200;52.084;5.224;2022-12-22T11:04:16;151992.0;;;12.8;77.11
33913;BME280;20200;52.084;5.224;2022-12-22T11:05:56;152033.0;;;12.97;76.31
33913;BME280;20200;52.084;5.224;2022-12-22T11:09:12;152081.0;;;13.16;75.58
33913;BME280;20200;52.084;5.224;2022-12-22T11:10:53;152114.0;;;13.29;74.84
33913;BME280;20200;52.084;5.224;2022-12-22T11:12:39;151999.0;;;12.83;75.11
33913;BME280;20200;52.084;5.224;2022-12-22T11:14:30;152124.0;;;13.33;74.06
33913;BME280;20200;52.084;5.224;2022-12-22T11:18:00;152049.0;;;13.03;74.45
33913;BME280;20200;52.084;5.224;2022-12-22T11:19:49;152198.0;;;13.62;72.66
33913;BME280;20200;52.084;5.224;2022-12-22T11:21:41;152242.0;;;13.8;71.09
33913;BME280;20200;52.084;5.224;2022-12-22T11:23:32;152232.0;;;13.76;71.09
33913;BME280;20200;52.084;5.224;2022-12-22T11:25:22;152164.0;;;13.49;70.88
33913;BME280;20200;52.084;5.224;2022-12-22T11:27:16;152279.0;;;13.95;69.81
33913;BME280;20200;52.084;5.224;2022-12-22T11:29:08;152323.0;;;14.12;69.8
33913;BME280;20200;52.084;5.224;2022-12-22T11:31:04;152352.0;;;14.24;69.47
33913;BME280;20200;52.084;5.224;2022-12-22T11:34:57;152200.0;;;13.63;69.14
33913;BME280;20200;52.084;5.224;2022-12-22T11:36:55;152277.0;;;13.94;68.95
33913;BME280;20200;52.084;5.224;2022-12-22T11:38:45;152391.0;;;14.39;68.89
33913;BME280;20200;52.084;5.224;2022-12-22T11:40:30;152388.0;;;14.38;68.47
33913;BME280;20200;52.084;5.224;2022-12-22T11:42:19;152308.0;;;14.06;69.67
33913;BME280;20200;52.084;5.224;2022-12-22T11:44:17;152320.0;;;14.11;69.48
33913;BME280;20200;52.084;5.224;2022-12-22T11:46:30;152338.0;;;14.18;69.3
33913;BME280;20200;52.084;5.224;2022-12-22T11:48:31;152347.0;;;14.22;69.88
33913;BME280;20200;52.084;5.224;2022-12-22T11:50:28;152285.0;;;13.97;69.72
33913;BME280;20200;52.084;5.224;2022-12-22T11:52:20;152354.0;;;14.25;69.44
33913;BME280;20200;52.084;5.224;2022-12-22T11:54:18;152403.0;;;14.44;68.91
33913;BME280;20200;52.084;5.224;2022-12-22T11:56:19;152381.0;;;14.35;68.27
33913;BME280;20200;52.084;5.224;2022-12-22T11:59:57;152353.0;;;14.24;68.84
33913;BME280;20200;52.084;5.224;2022-12-22T12:02:13;152313.0;;;14.08;68.8
33913;BME280;20200;52.084;5.224;2022-12-22T12:04:13;152373.0;;;14.32;67.8
33913;BME280;20200;52.084;5.224;2022-12-22T12:06:50;152249.0;;;13.83;69.13
33913;BME280;20200;52.084;5.224;2022-12-22T12:08:48;152155.0;;;13.46;70.25
33913;BME280;20200;52.084;5.224;2022-12-22T12:12:23;152161.0;;;13.48;70.11
33913;BME280;20200;52.084;5.224;2022-12-22T12:14:09;152179.0;;;13.55;70.14
33913;BME280;20200;52.084;5.224;2022-12-22T12:15:54;152208.0;;;13.66;69.98
33913;BME280;20200;52.084;5.224;2022-12-22T12:17:43;152177.0;;;13.54;69.69
33913;BME280;20200;52.084;5.224;2022-12-22T12:19:40;152163.0;;;13.49;70.28
33913;BME280;20200;52.084;5.224;2022-12-22T12:22:18;152154.0;;;13.45;70.8
33913;BME280;20200;52.084;5.224;2022-12-22T12:24:18;152178.0;;;13.55;70.58
33913;BME280;20200;52.084;5.224;2022-12-22T12:26:29;152195.0;;;13.61;70.09
33913;BME280;20200;52.084;5.224;2022-12-22T12:28:17;152162.0;;;13.48;70.44
33913;BME280;20200;52.084;5.224;2022-12-22T12:30:02;152126.0;;;13.34;70.97
33913;BME280;20200;52.084;5.224;2022-12-22T12:31:42;152041.0;;;13.0;72.45
33913;BME280;20200;52.084;5.224;2022-12-22T12:35:26;152117.0;;;13.3;71.67
33913;BME280;20200;52.084;5.224;2022-12-22T12:37:21;152129.0;;;13.36;70.86
33913;BME280;20200;52.084;5.224;2022-12-22T12:39:01;152131.0;;;13.36;70.98
33913;BME280;20200;52.084;5.224;2022-12-22T12:40:50;151962.0;;;12.68;71.89
33913;BME280;20200;52.084;5.224;2022-12-22T12:42:32;151976.0;;;12.74;71.22
33913;BME280;20200;52.084;5.224;2022-12-22T12:44:14;151893.0;;;12.41;71.63
33913;BME280;20200;52.084;5.224;2022-12-22T12:47:28;151930.0;;;12.56;71.41
33913;BME280;20200;52.084;5.224;2022-12-22T12:49:54;151953.0;;;12.65;70.88
33913;BME280;20200;52.084;5.224;2022-12-22T12:51:47;151947.0;;;12.63;70.86
33913;BME280;20200;52.084;5.224;2022-12-22T12:53:25;151816.0;;;12.1;72.58
33913;BME280;20200;52.084;5.224;2022-12-22T12:55:23;151801.0;;;12.04;73.09
33913;BME280;20200;52.084;5.224;2022-12-22T12:57:47;151816.0;;;12.1;73.19
33913;BME280;20200;52.084;5.224;2022-12-22T12:59:44;151743.0;;;11.81;74.08
33913;BME280;20200;52.084;5.224;2022-12-22T13:03:36;151587.0;;;11.19;76.41
33913;BME280;20200;52.084;5.224;2022-12-22T13:07:07;151647.0;;;11.43;75.37
33913;BME280;20200;52.084;5.224;2022-12-22T13:12:55;151660.0;;;11.48;75.22
33913;BME280;20200;52.084;5.224;2022-12-22T13:15:26;151732.0;;;11.77;74.44
33913;BME280;20200;52.084;5.224;2022-12-22T13:18:37;151805.0;;;12.06;73.64
33913;BME280;20200;52.084;5.224;2022-12-22T13:20:23;151741.0;;;11.81;73.86
33913;BME280;20200;52.084;5.224;2022-12-22T13:22:01;151787.0;;;11.99;73.14
33913;BME280;20200;52.084;5.224;2022-12-22T13:25:17;151723.0;;;11.73;73.66
33913;BME280;20200;52.084;5.224;2022-12-22T13:26:59;151740.0;;;11.8;74.03
33913;BME280;20200;52.084;5.224;2022-12-22T13:28:39;151715.0;;;11.7;74.77
33913;BME280;20200;52.084;5.224;2022-12-22T13:30:19;151788.0;;;11.99;74.08
33913;BME280;20200;52.084;5.224;2022-12-22T13:33:38;151809.0;;;12.07;73.59
33913;BME280;20200;52.084;5.224;2022-12-22T13:35:17;151844.0;;;12.21;73.3
33913;BME280;20200;52.084;5.224;2022-12-22T13:36:57;151770.0;;;11.92;73.69
33913;BME280;20200;52.084;5.224;2022-12-22T13:38:36;151832.0;;;12.17;73.3
33913;BME280;20200;52.084;5.224;2022-12-22T13:41:53;151803.0;;;12.05;73.42
33913;BME280;20200;52.084;5.224;2022-12-22T13:43:31;151866.0;;;12.3;72.77
33913;BME280;20200;52.084;5.224;2022-12-22T13:45:15;151867.0;;;12.31;72.11
33913;BME280;20200;52.084;5.224;2022-12-22T13:47:01;151838.0;;;12.19;72.69
33913;BME280;20200;52.084;5.224;2022-12-22T13:50:20;151878.0;;;12.35;72.33
33913;BME280;20200;52.084;5.224;2022-12-22T13:51:59;151914.0;;;12.49;71.97
33913;BME280;20200;52.084;5.224;2022-12-22T13:53:39;151932.0;;;12.57;71.41
33913;BME280;20200;52.084;5.224;2022-12-22T13:55:22;151933.0;;;12.57;71.09
33913;BME280;20200;52.084;5.224;2022-12-22T13:58:54;151962.0;;;12.69;70.8
33913;BME280;20200;52.084;5.224;2022-12-22T14:00:34;152028.0;;;12.95;70.11
33913;BME280;20200;52.084;5.224;2022-12-22T14:02:14;152024.0;;;12.93;69.86
33913;BME280;20200;52.084;5.224;2022-12-22T14:03:53;151969.0;;;12.72;70.61
33913;BME280;20200;52.084;5.224;2022-12-22T14:07:09;151936.0;;;12.58;71.27
33913;BME280;20200;52.084;5.224;2022-12-22T14:08:47;151897.0;;;12.43;71.28
33913;BME280;20200;52.084;5.224;2022-12-22T14:10:26;151962.0;;;12.68;70.95
33913;BME280;20200;52.084;5.224;2022-12-22T14:12:06;151952.0;;;12.65;70.99
33913;BME280;20200;52.084;5.224;2022-12-22T14:15:22;151937.0;;;12.59;71.19
33913;BME280;20200;52.084;5.224;2022-12-22T14:16:59;151948.0;;;12.63;71.13
33913;BME280;20200;52.084;5.224;2022-12-22T14:18:37;151952.0;;;12.65;71.34
33913;BME280;20200;52.084;5.224;2022-12-22T14:22:06;151946.0;;;12.62;71.49
33913;BME280;20200;52.084;5.224;2022-12-22T14:23:45;151885.0;;;12.38;72.36
33913;BME280;20200;52.084;5.224;2022-12-22T14:25:23;151900.0;;;12.44;72.02
33913;BME280;20200;52.084;5.224;2022-12-22T14:27:05;151943.0;;;12.61;71.95
33913;BME280;20200;52.084;5.224;2022-12-22T14:28:52;151936.0;;;12.58;72.03
33913;BME280;20200;52.084;5.224;2022-12-22T14:32:31;151930.0;;;12.56;71.84
33913;BME280;20200;52.084;5.224;2022-12-22T14:34:23;151890.0;;;12.4;72.27
33913;BME280;20200;52.084;5.224;2022-12-22T14:36:09;151895.0;;;12.42;72.52
33913;BME280;20200;52.084;5.224;2022-12-22T14:37:51;151926.0;;;12.54;72.61
33913;BME280;20200;52.084;5.224;2022-12-22T14:39:30;151986.0;;;12.78;71.86
33913;BME280;20200;52.084;5.224;2022-12-22T14:42:52;151936.0;;;12.58;71.5
33913;BME280;20200;52.084;5.224;2022-12-22T14:44:31;151955.0;;;12.66;72.0
33913;BME280;20200;52.084;5.224;2022-12-22T14:46:09;151957.0;;;12.67;72.22
33913;BME280;20200;52.084;5.224;2022-12-22T14:47:45;151978.0;;;12.75;72.33
33913;BME280;20200;52.084;5.224;2022-12-22T14:50:58;151962.0;;;12.69;72.12
33913;BME280;20200;52.084;5.224;2022-12-22T14:52:42;151956.0;;;12.66;72.25
33913;BME280;20200;52.084;5.224;2022-12-22T14:54:22;152010.0;;;12.88;71.92
33913;BME280;20200;52.084;5.224;2022-12-22T14:56:00;152086.0;;;13.18;71.17
33913;BME280;20200;52.084;5.224;2022-12-22T14:59:24;151984.0;;;12.77;71.88
33913;BME280;20200;52.084;5.224;2022-12-22T15:01:32;152019.0;;;12.91;72.11
33913;BME280;20200;52.084;5.224;2022-12-22T15:03:29;151975.0;;;12.74;72.42
33913;BME280;20200;52.084;5.224;2022-12-22T15:05:11;151966.0;;;12.7;72.8
33913;BME280;20200;52.084;5.224;2022-12-22T15:06:49;152065.0;;;13.09;71.42
33913;BME280;20200;52.084;5.224;2022-12-22T15:08:41;152029.0;;;12.95;71.87
33913;BME280;20200;52.084;5.224;2022-12-22T15:12:03;151989.0;;;12.79;72.44
33913;BME280;20200;52.084;5.224;2022-12-22T15:13:40;152028.0;;;12.95;72.27
33913;BME280;20200;52.084;5.224;2022-12-22T15:15:19;152054.0;;;13.05;71.62
33913;BME280;20200;52.084;5.224;2022-12-22T15:16:58;151998.0;;;12.83;71.86
33913;BME280;20200;52.084;5.224;2022-12-22T15:20:15;152074.0;;;13.13;71.69
33913;BME280;20200;52.084;5.224;2022-12-22T15:21:52;152044.0;;;13.01;71.87
33913;BME280;20200;52.084;5.224;2022-12-22T15:23:29;152093.0;;;13.21;71.3
33913;BME280;20200;52.084;5.224;2022-12-22T15:26:47;152107.0;;;13.26;71.05
33913;BME280;20200;52.084;5.224;2022-12-22T15:28:23;152074.0;;;13.13;71.39
33913;BME280;20200;52.084;5.224;2022-12-22T15:29:59;152006.0;;;12.86;72.61
33913;BME280;20200;52.084;5.224;2022-12-22T15:31:36;151987.0;;;12.78;73.23
33913;BME280;20200;52.084;5.224;2022-12-22T15:34:53;151923.0;;;12.53;74.12
33913;BME280;20200;52.084;5.224;2022-12-22T15:36:30;151924.0;;;12.53;74.45
33913;BME280;20200;52.084;5.224;2022-12-22T15:38:11;151931.0;;;12.56;74.74
33913;BME280;20200;52.084;5.224;2022-12-22T15:39:47;151945.0;;;12.62;74.5
33913;BME280;20200;52.084;5.224;2022-12-22T15:42:59;151946.0;;;12.62;74.64
33913;BME280;20200;52.084;5.224;2022-12-22T15:44:36;151851.0;;;12.24;75.52
33913;BME280;20200;52.084;5.224;2022-12-22T15:47:52;151930.0;;;12.56;75.24
33913;BME280;20200;52.084;5.224;2022-12-22T15:49:29;151899.0;;;12.44;75.77
33913;BME280;20200;52.084;5.224;2022-12-22T15:51:10;151794.0;;;12.02;77.16
33913;BME280;20200;52.084;5.224;2022-12-22T15:52:56;151826.0;;;12.14;77.22
33913;BME280;20200;52.084;5.224;2022-12-22T15:54:34;151900.0;;;12.44;76.31
33913;BME280;20200;52.084;5.224;2022-12-22T15:57:55;151920.0;;;12.52;75.92
33913;BME280;20200;52.084;5.224;2022-12-22T15:59:32;151942.0;;;12.61;75.69
33913;BME280;20200;52.084;5.224;2022-12-22T16:01:09;151943.0;;;12.61;75.69
33913;BME280;20200;52.084;5.224;2022-12-22T16:04:22;151892.0;;;12.41;76.52
33913;BME280;20200;52.084;5.224;2022-12-22T16:05:59;151896.0;;;12.42;76.59
33913;BME280;20200;52.084;5.224;2022-12-22T16:07:36;151863.0;;;12.29;77.02
33913;BME280;20200;52.084;5.224;2022-12-22T16:09:19;151908.0;;;12.47;76.72
33913;BME280;20200;52.084;5.224;2022-12-22T16:12:33;151862.0;;;12.29;77.33
33913;BME280;20200;52.084;5.224;2022-12-22T16:14:11;151902.0;;;12.45;76.8
33913;BME280;20200;52.084;5.224;2022-12-22T16:15:48;151848.0;;;12.23;77.42
33913;BME280;20200;52.084;5.224;2022-12-22T16:19:03;151831.0;;;12.16;78.02
33913;BME280;20200;52.084;5.224;2022-12-22T16:20:40;151867.0;;;12.31;77.66
33913;BME280;20200;52.084;5.224;2022-12-22T16:22:25;151880.0;;;12.36;77.59
33913;BME280;20200;52.084;5.224;2022-12-22T16:24:06;151807.0;;;12.07;78.72
33913;BME280;20200;52.084;5.224;2022-12-22T16:27:20;151847.0;;;12.23;78.16
33913;BME280;20200;52.084;5.224;2022-12-22T16:28:56;151945.0;;;12.62;76.81
33913;BME280;20200;52.084;5.224;2022-12-22T16:30:34;151950.0;;;12.64;76.53
33913;BME280;20200;52.084;5.224;2022-12-22T16:32:16;152086.0;;;13.18;73.83
33913;BME280;20200;52.084;5.224;2022-12-22T16:35:29;152022.0;;;12.93;75.3
33913;BME280;20200;52.084;5.224;2022-12-22T16:37:05;151976.0;;;12.74;75.72
33913;BME280;20200;52.084;5.224;2022-12-22T16:38:42;151954.0;;;12.65;76.47
33913;BME280;20200;52.084;5.224;2022-12-22T16:41:55;151955.0;;;12.66;76.36
33913;BME280;20200;52.084;5.224;2022-12-22T16:43:34;151982.0;;;12.76;76.13
33913;BME280;20200;52.084;5.224;2022-12-22T16:45:16;151985.0;;;12.78;76.08
33913;BME280;20200;52.084;5.224;2022-12-22T16:46:55;151962.0;;;12.69;76.39
33913;BME280;20200;52.084;5.224;2022-12-22T16:50:16;152001.0;;;12.84;76.08
33913;BME280;20200;52.084;5.224;2022-12-22T16:53:30;151918.0;;;12.51;77.36
33913;BME280;20200;52.084;5.224;2022-12-22T16:55:13;151929.0;;;12.55;77.33
33913;BME280;20200;52.084;5.224;2022-12-22T16:58:25;151929.0;;;12.55;77.16
33913;BME280;20200;52.084;5.224;2022-12-22T17:00:02;151897.0;;;12.43;77.63
33913;BME280;20200;52.084;5.224;2022-12-22T17:01:40;151920.0;;;12.52;77.55
33913;BME280;20200;52.084;5.224;2022-12-22T17:05:01;151888.0;;;12.39;78.33
33913;BME280;20200;52.084;5.224;2022-12-22T17:06:38;151895.0;;;12.42;77.97
33913;BME280;20200;52.084;5.224;2022-12-22T17:08:19;151886.0;;;12.38;78.42
33913;BME280;20200;52.084;5.224;2022-12-22T17:09:59;151920.0;;;12.52;77.58
33913;BME280;20200;52.084;5.224;2022-12-22T17:13:13;151932.0;;;12.57;77.55
33913;BME280;20200;52.084;5.224;2022-12-22T17:14:49;151927.0;;;12.55;77.72
33913;BME280;20200;52.084;5.224;2022-12-22T17:16:27;151925.0;;;12.54;77.73
33913;BME280;20200;52.084;5.224;2022-12-22T17:19:46;151978.0;;;12.75;76.91
33913;BME280;20200;52.084;5.224;2022-12-22T17:21:22;151903.0;;;12.45;78.0
33913;BME280;20200;52.084;5.224;2022-12-22T17:23:01;151941.0;;;12.6;77.63
33913;BME280;20200;52.084;5.224;2022-12-22T17:24:38;151919.0;;;12.51;77.95
33913;BME280;20200;52.084;5.224;2022-12-22T17:27:55;151934.0;;;12.57;77.97
33913;BME280;20200;52.084;5.224;2022-12-22T17:29:36;151956.0;;;12.66;77.33
33913;BME280;20200;52.084;5.224;2022-12-22T17:31:14;152027.0;;;12.94;76.58
33913;BME280;20200;52.084;5.224;2022-12-22T17:32:51;151954.0;;;12.65;77.59
33913;BME280;20200;52.084;5.224;2022-12-22T17:36:11;151948.0;;;12.63;77.8
33913;BME280;20200;52.084;5.224;2022-12-22T17:37:51;151988.0;;;12.79;77.06
33913;BME280;20200;52.084;5.224;2022-12-22T17:39:28;152017.0;;;12.9;76.59
33913;BME280;20200;52.084;5.224;2022-12-22T17:42:44;151990.0;;;12.8;76.98
33913;BME280;20200;52.084;5.224;2022-12-22T17:44:24;152010.0;;;12.88;76.84
33913;BME280;20200;52.084;5.224;2022-12-22T17:46:00;151975.0;;;12.74;77.58
33913;BME280;20200;52.084;5.224;2022-12-22T17:47:37;151994.0;;;12.81;77.3
33913;BME280;20200;52.084;5.224;2022-12-22T17:50:50;151996.0;;;12.82;77.22
33913;BME280;20200;52.084;5.224;2022-12-22T17:52:26;151988.0;;;12.79;77.22
33913;BME280;20200;52.084;5.224;2022-12-22T17:54:03;151978.0;;;12.75;77.31
33913;BME280;20200;52.084;5.224;2022-12-22T17:57:19;151993.0;;;12.81;77.33
33913;BME280;20200;52.084;5.224;2022-12-22T17:59:00;152019.0;;;12.91;76.92
33913;BME280;20200;52.084;5.224;2022-12-22T18:00:36;152085.0;;;13.18;75.91
33913;BME280;20200;52.084;5.224;2022-12-22T18:02:15;152051.0;;;13.04;76.28
33913;BME280;20200;52.084;5.224;2022-12-22T18:05:38;152051.0;;;13.04;76.27
33913;BME280;20200;52.084;5.224;2022-12-22T18:07:21;152085.0;;;13.18;75.83
33913;BME280;20200;52.084;5.224;2022-12-22T18:09:00;152083.0;;;13.17;75.97
33913;BME280;20200;52.084;5.224;2022-12-22T18:10:37;152028.0;;;12.95;77.02
33913;BME280;20200;52.084;5.224;2022-12-22T18:13:54;152030.0;;;12.96;76.83
33913;BME280;20200;52.084;5.224;2022-12-22T18:15:30;152047.0;;;13.02;76.84
33913;BME280;20200;52.084;5.224;2022-12-22T18:17:14;152070.0;;;13.11;76.52
33913;BME280;20200;52.084;5.224;2022-12-22T18:18:55;151959.0;;;12.67;78.3
33913;BME280;20200;52.084;5.224;2022-12-22T18:22:13;151996.0;;;12.82;77.97
33913;BME280;20200;52.084;5.224;2022-12-22T18:23:51;152005.0;;;12.86;78.05
33913;BME280;20200;52.084;5.224;2022-12-22T18:25:29;152019.0;;;12.91;77.8
33913;BME280;20200;52.084;5.224;2022-12-22T18:28:47;152018.0;;;12.91;77.91
33913;BME280;20200;52.084;5.224;2022-12-22T18:30:26;152031.0;;;12.96;77.86
33913;BME280;20200;52.084;5.224;2022-12-22T18:32:04;151999.0;;;12.83;78.24
33913;BME280;20200;52.084;5.224;2022-12-22T18:33:40;152026.0;;;12.94;77.84
33913;BME280;20200;52.084;5.224;2022-12-22T18:36:55;152027.0;;;12.94;77.83
33913;BME280;20200;52.084;5.224;2022-12-22T18:38:32;152074.0;;;13.13;77.33
33913;BME280;20200;52.084;5.224;2022-12-22T18:40:21;152019.0;;;12.91;77.97
33913;BME280;20200;52.084;5.224;2022-12-22T18:41:59;152068.0;;;13.11;77.72
33913;BME280;20200;52.084;5.224;2022-12-22T18:45:12;152067.0;;;13.1;77.83